sensor_id;sensor_type;location;lat;lon;timestamp;P1;durP1;ratioP1;P2;durP2;ratioP2
36839;SDS011;24406;51.640;9.566;2023-04-24T00:01:08;2.63;;;2.28;;
36839;SDS011;24406;51.640;9.566;2023-04-24T00:06:11;2.20;;;1.80;;
36839;SDS011;24406;51.640;9.566;2023-04-24T00:11:13;2.38;;;1.83;;
36839;SDS011;24406;51.640;9.566;2023-04-24T00:16:14;2.45;;;2.25;;
36839;SDS011;24406;51.640;9.566;2023-04-24T00:21:17;3.25;;;2.92;;
36839;SDS011;24406;51.640;9.566;2023-04-24T00:26:19;2.50;;;2.30;;
36839;SDS011;24406;51.640;9.566;2023-04-24T00:31:20;2.58;;;2.38;;
36839;SDS011;24406;51.640;9.566;2023-04-24T00:36:23;2.30;;;2.15;;
36839;SDS011;24406;51.640;9.566;2023-04-24T00:41:25;3.30;;;1.80;;
36839;SDS011;24406;51.640;9.566;2023-04-24T00:46:26;3.90;;;2.40;;
36839;SDS011;24406;51.640;9.566;2023-04-24T00:51:29;4.22;;;2.33;;
36839;SDS011;24406;51.640;9.566;2023-04-24T00:56:32;5.50;;;3.85;;
36839;SDS011;24406;51.640;9.566;2023-04-24T01:01:34;4.20;;;1.70;;
36839;SDS011;24406;51.640;9.566;2023-04-24T01:06:39;1.52;;;1.42;;
36839;SDS011;24406;51.640;9.566;2023-04-24T01:11:41;1.52;;;1.30;;
36839;SDS011;24406;51.640;9.566;2023-04-24T01:16:43;2.15;;;1.63;;
36839;SDS011;24406;51.640;9.566;2023-04-24T01:21:46;3.38;;;1.83;;
36839;SDS011;24406;51.640;9.566;2023-04-24T01:26:50;1.85;;;1.50;;
36839;SDS011;24406;51.640;9.566;2023-04-24T01:31:52;1.40;;;1.30;;
36839;SDS011;24406;51.640;9.566;2023-04-24T01:36:54;2.15;;;1.95;;
36839;SDS011;24406;51.640;9.566;2023-04-24T01:41:57;1.75;;;1.65;;
36839;SDS011;24406;51.640;9.566;2023-04-24T01:47:00;3.05;;;1.58;;
36839;SDS011;24406;51.640;9.566;2023-04-24T01:52:01;1.27;;;1.10;;
36839;SDS011;24406;51.640;9.566;2023-04-24T01:57:06;4.10;;;1.80;;
36839;SDS011;24406;51.640;9.566;2023-04-24T02:02:07;1.08;;;1.08;;
36839;SDS011;24406;51.640;9.566;2023-04-24T02:07:09;1.42;;;1.30;;
36839;SDS011;24406;51.640;9.566;2023-04-24T02:12:12;1.30;;;1.10;;
36839;SDS011;24406;51.640;9.566;2023-04-24T02:17:13;2.30;;;1.42;;
36839;SDS011;24406;51.640;9.566;2023-04-24T02:22:16;2.13;;;1.40;;
36839;SDS011;24406;51.640;9.566;2023-04-24T02:27:19;2.30;;;1.88;;
36839;SDS011;24406;51.640;9.566;2023-04-24T02:32:20;1.65;;;1.30;;
36839;SDS011;24406;51.640;9.566;2023-04-24T02:37:22;1.90;;;1.70;;
36839;SDS011;24406;51.640;9.566;2023-04-24T02:42:25;1.80;;;1.70;;
36839;SDS011;24406;51.640;9.566;2023-04-24T02:47:26;1.50;;;1.35;;
36839;SDS011;24406;51.640;9.566;2023-04-24T02:52:28;5.35;;;1.90;;
36839;SDS011;24406;51.640;9.566;2023-04-24T02:57:31;1.10;;;1.10;;
36839;SDS011;24406;51.640;9.566;2023-04-24T03:02:32;3.40;;;1.30;;
36839;SDS011;24406;51.640;9.566;2023-04-24T03:07:34;1.75;;;1.40;;
36839;SDS011;24406;51.640;9.566;2023-04-24T03:12:38;2.25;;;1.77;;
36839;SDS011;24406;51.640;9.566;2023-04-24T03:17:39;3.80;;;1.88;;
36839;SDS011;24406;51.640;9.566;2023-04-24T03:22:41;3.25;;;1.77;;
36839;SDS011;24406;51.640;9.566;2023-04-24T03:27:44;2.53;;;2.28;;
36839;SDS011;24406;51.640;9.566;2023-04-24T03:32:54;3.88;;;2.42;;
36839;SDS011;24406;51.640;9.566;2023-04-24T03:38:00;2.97;;;2.35;;
36839;SDS011;24406;51.640;9.566;2023-04-24T03:43:17;4.82;;;2.58;;
36839;SDS011;24406;51.640;9.566;2023-04-24T03:48:19;3.58;;;3.28;;
36839;SDS011;24406;51.640;9.566;2023-04-24T03:53:21;4.90;;;3.55;;
36839;SDS011;24406;51.640;9.566;2023-04-24T03:58:25;2.85;;;2.65;;
36839;SDS011;24406;51.640;9.566;2023-04-24T04:03:29;3.30;;;2.92;;
36839;SDS011;24406;51.640;9.566;2023-04-24T04:08:30;3.85;;;2.70;;
36839;SDS011;24406;51.640;9.566;2023-04-24T04:13:33;2.75;;;2.55;;
36839;SDS011;24406;51.640;9.566;2023-04-24T04:18:35;2.92;;;2.50;;
36839;SDS011;24406;51.640;9.566;2023-04-24T04:23:38;6.25;;;2.67;;
36839;SDS011;24406;51.640;9.566;2023-04-24T04:29:05;4.70;;;3.03;;
36839;SDS011;24406;51.640;9.566;2023-04-24T04:34:09;3.00;;;2.45;;
36839;SDS011;24406;51.640;9.566;2023-04-24T04:39:12;2.75;;;2.55;;
36839;SDS011;24406;51.640;9.566;2023-04-24T04:44:35;3.08;;;2.72;;
36839;SDS011;24406;51.640;9.566;2023-04-24T04:49:40;3.60;;;3.30;;
36839;SDS011;24406;51.640;9.566;2023-04-24T04:54:50;3.08;;;2.88;;
36839;SDS011;24406;51.640;9.566;2023-04-24T04:59:53;3.65;;;3.20;;
36839;SDS011;24406;51.640;9.566;2023-04-24T05:05:08;4.05;;;3.53;;
36839;SDS011;24406;51.640;9.566;2023-04-24T05:10:11;4.38;;;3.33;;
36839;SDS011;24406;51.640;9.566;2023-04-24T05:15:14;5.15;;;3.63;;
36839;SDS011;24406;51.640;9.566;2023-04-24T05:20:16;7.20;;;3.30;;
36839;SDS011;24406;51.640;9.566;2023-04-24T05:25:18;4.47;;;2.40;;
36839;SDS011;24406;51.640;9.566;2023-04-24T05:30:29;2.75;;;2.50;;
36839;SDS011;24406;51.640;9.566;2023-04-24T05:35:32;2.30;;;1.90;;
36839;SDS011;24406;51.640;9.566;2023-04-24T05:40:35;2.95;;;1.70;;
36839;SDS011;24406;51.640;9.566;2023-04-24T05:45:37;3.40;;;1.60;;
36839;SDS011;24406;51.640;9.566;2023-04-24T05:50:40;1.20;;;1.10;;
36839;SDS011;24406;51.640;9.566;2023-04-24T05:55:41;1.45;;;1.25;;
36839;SDS011;24406;51.640;9.566;2023-04-24T06:00:48;3.33;;;1.27;;
36839;SDS011;24406;51.640;9.566;2023-04-24T06:05:51;1.30;;;1.20;;
36839;SDS011;24406;51.640;9.566;2023-04-24T06:10:55;2.35;;;1.27;;
36839;SDS011;24406;51.640;9.566;2023-04-24T06:15:58;2.70;;;1.90;;
36839;SDS011;24406;51.640;9.566;2023-04-24T06:21:08;2.65;;;2.00;;
36839;SDS011;24406;51.640;9.566;2023-04-24T06:26:10;2.28;;;2.08;;
36839;SDS011;24406;51.640;9.566;2023-04-24T06:31:13;2.72;;;2.40;;
36839;SDS011;24406;51.640;9.566;2023-04-24T06:36:22;4.20;;;2.97;;
36839;SDS011;24406;51.640;9.566;2023-04-24T06:41:24;3.38;;;3.08;;
36839;SDS011;24406;51.640;9.566;2023-04-24T06:46:27;4.43;;;3.15;;
36839;SDS011;24406;51.640;9.566;2023-04-24T06:51:28;3.88;;;3.53;;
36839;SDS011;24406;51.640;9.566;2023-04-24T06:56:31;3.85;;;2.90;;
36839;SDS011;24406;51.640;9.566;2023-04-24T07:01:35;3.33;;;2.80;;
36839;SDS011;24406;51.640;9.566;2023-04-24T07:06:37;2.17;;;1.88;;
36839;SDS011;24406;51.640;9.566;2023-04-24T07:11:39;1.80;;;1.70;;
36839;SDS011;24406;51.640;9.566;2023-04-24T07:16:42;2.83;;;2.03;;
36839;SDS011;24406;51.640;9.566;2023-04-24T07:21:45;2.70;;;2.50;;
36839;SDS011;24406;51.640;9.566;2023-04-24T07:26:46;3.53;;;2.60;;
36839;SDS011;24406;51.640;9.566;2023-04-24T07:31:49;3.42;;;3.13;;
36839;SDS011;24406;51.640;9.566;2023-04-24T07:36:51;3.70;;;3.40;;
36839;SDS011;24406;51.640;9.566;2023-04-24T07:41:52;4.47;;;4.07;;
36839;SDS011;24406;51.640;9.566;2023-04-24T07:46:55;4.82;;;4.43;;
36839;SDS011;24406;51.640;9.566;2023-04-24T07:51:57;4.90;;;4.50;;
36839;SDS011;24406;51.640;9.566;2023-04-24T07:57:00;6.20;;;4.50;;
36839;SDS011;24406;51.640;9.566;2023-04-24T08:02:03;5.38;;;4.90;;
36839;SDS011;24406;51.640;9.566;2023-04-24T08:07:06;5.47;;;4.50;;
36839;SDS011;24406;51.640;9.566;2023-04-24T08:12:07;5.70;;;4.50;;
36839;SDS011;24406;51.640;9.566;2023-04-24T08:17:10;4.72;;;4.32;;
36839;SDS011;24406;51.640;9.566;2023-04-24T08:22:12;5.50;;;4.05;;
36839;SDS011;24406;51.640;9.566;2023-04-24T08:27:13;3.80;;;3.50;;
36839;SDS011;24406;51.640;9.566;2023-04-24T08:32:16;3.70;;;3.40;;
36839;SDS011;24406;51.640;9.566;2023-04-24T08:37:18;3.55;;;3.25;;
36839;SDS011;24406;51.640;9.566;2023-04-24T08:42:19;5.30;;;3.90;;
36839;SDS011;24406;51.640;9.566;2023-04-24T08:47:23;3.40;;;3.10;;
36839;SDS011;24406;51.640;9.566;2023-04-24T08:52:25;3.80;;;3.35;;
36839;SDS011;24406;51.640;9.566;2023-04-24T08:57:28;4.40;;;4.00;;
36839;SDS011;24406;51.640;9.566;2023-04-24T09:02:32;5.00;;;3.90;;
36839;SDS011;24406;51.640;9.566;2023-04-24T09:07:34;4.03;;;3.72;;
36839;SDS011;24406;51.640;9.566;2023-04-24T09:12:36;4.90;;;3.70;;
36839;SDS011;24406;51.640;9.566;2023-04-24T09:17:40;3.63;;;3.33;;
36839;SDS011;24406;51.640;9.566;2023-04-24T09:22:42;4.13;;;3.72;;
36839;SDS011;24406;51.640;9.566;2023-04-24T09:27:47;3.63;;;3.33;;
36839;SDS011;24406;51.640;9.566;2023-04-24T09:32:50;3.97;;;3.67;;
36839;SDS011;24406;51.640;9.566;2023-04-24T09:38:11;3.45;;;3.15;;
36839;SDS011;24406;51.640;9.566;2023-04-24T09:43:13;3.90;;;3.60;;
36839;SDS011;24406;51.640;9.566;2023-04-24T09:48:16;3.55;;;3.05;;
36839;SDS011;24406;51.640;9.566;2023-04-24T09:53:18;2.78;;;2.50;;
36839;SDS011;24406;51.640;9.566;2023-04-24T09:58:25;3.65;;;2.60;;
36839;SDS011;24406;51.640;9.566;2023-04-24T10:03:31;2.90;;;2.60;;
36839;SDS011;24406;51.640;9.566;2023-04-24T10:08:34;5.45;;;2.30;;
36839;SDS011;24406;51.640;9.566;2023-04-24T10:13:37;2.10;;;1.95;;
36839;SDS011;24406;51.640;9.566;2023-04-24T10:18:41;2.30;;;2.10;;
36839;SDS011;24406;51.640;9.566;2023-04-24T10:23:43;3.00;;;2.40;;
36839;SDS011;24406;51.640;9.566;2023-04-24T10:28:46;2.75;;;2.30;;
36839;SDS011;24406;51.640;9.566;2023-04-24T10:33:50;4.95;;;3.33;;
36839;SDS011;24406;51.640;9.566;2023-04-24T10:38:53;2.60;;;2.40;;
36839;SDS011;24406;51.640;9.566;2023-04-24T10:44:05;2.15;;;2.00;;
36839;SDS011;24406;51.640;9.566;2023-04-24T10:49:10;1.73;;;1.60;;
36839;SDS011;24406;51.640;9.566;2023-04-24T10:54:22;1.50;;;1.40;;
36839;SDS011;24406;51.640;9.566;2023-04-24T10:59:25;1.52;;;1.42;;
36839;SDS011;24406;51.640;9.566;2023-04-24T11:04:30;2.00;;;1.50;;
36839;SDS011;24406;51.640;9.566;2023-04-24T11:09:33;1.40;;;1.30;;
36839;SDS011;24406;51.640;9.566;2023-04-24T11:20:17;2.20;;;0.70;;
36839;SDS011;24406;51.640;9.566;2023-04-24T11:25:19;0.85;;;0.75;;
36839;SDS011;24406;51.640;9.566;2023-04-24T11:30:22;0.43;;;0.43;;
36839;SDS011;24406;51.640;9.566;2023-04-24T11:35:25;0.57;;;0.57;;
36839;SDS011;24406;51.640;9.566;2023-04-24T11:40:28;0.90;;;0.90;;
36839;SDS011;24406;51.640;9.566;2023-04-24T11:45:30;0.70;;;0.70;;
36839;SDS011;24406;51.640;9.566;2023-04-24T11:50:33;0.47;;;0.47;;
36839;SDS011;24406;51.640;9.566;2023-04-24T11:55:35;0.60;;;0.60;;
36839;SDS011;24406;51.640;9.566;2023-04-24T12:00:36;0.80;;;0.60;;
36839;SDS011;24406;51.640;9.566;2023-04-24T12:05:39;0.73;;;0.60;;
36839;SDS011;24406;51.640;9.566;2023-04-24T12:10:41;0.82;;;0.70;;
36839;SDS011;24406;51.640;9.566;2023-04-24T12:15:42;1.20;;;0.60;;
36839;SDS011;24406;51.640;9.566;2023-04-24T12:20:45;0.60;;;0.60;;
36839;SDS011;24406;51.640;9.566;2023-04-24T12:25:47;0.50;;;0.50;;
36839;SDS011;24406;51.640;9.566;2023-04-24T12:30:48;0.60;;;0.60;;
36839;SDS011;24406;51.640;9.566;2023-04-24T12:35:52;1.45;;;0.60;;
36839;SDS011;24406;51.640;9.566;2023-04-24T12:41:01;1.70;;;0.65;;
36839;SDS011;24406;51.640;9.566;2023-04-24T12:46:07;0.70;;;0.70;;
36839;SDS011;24406;51.640;9.566;2023-04-24T12:51:10;0.70;;;0.70;;
36839;SDS011;24406;51.640;9.566;2023-04-24T12:56:12;0.75;;;0.75;;
36839;SDS011;24406;51.640;9.566;2023-04-24T13:01:13;0.70;;;0.70;;
36839;SDS011;24406;51.640;9.566;2023-04-24T13:06:16;1.20;;;1.10;;
36839;SDS011;24406;51.640;9.566;2023-04-24T13:11:17;3.67;;;0.98;;
36839;SDS011;24406;51.640;9.566;2023-04-24T13:16:19;2.60;;;1.00;;
36839;SDS011;24406;51.640;9.566;2023-04-24T13:21:22;1.30;;;1.20;;
36839;SDS011;24406;51.640;9.566;2023-04-24T13:26:23;1.15;;;1.15;;
36839;SDS011;24406;51.640;9.566;2023-04-24T13:31:25;0.95;;;0.95;;
36839;SDS011;24406;51.640;9.566;2023-04-24T13:36:28;2.15;;;1.27;;
36839;SDS011;24406;51.640;9.566;2023-04-24T13:41:30;2.55;;;1.27;;
36839;SDS011;24406;51.640;9.566;2023-04-24T13:46:31;1.55;;;1.45;;
36839;SDS011;24406;51.640;9.566;2023-04-24T13:51:36;1.25;;;1.25;;
36839;SDS011;24406;51.640;9.566;2023-04-24T13:56:38;2.58;;;1.58;;
36839;SDS011;24406;51.640;9.566;2023-04-24T14:01:40;1.60;;;1.50;;
36839;SDS011;24406;51.640;9.566;2023-04-24T14:06:42;2.08;;;1.92;;
36839;SDS011;24406;51.640;9.566;2023-04-24T14:11:44;1.95;;;1.80;;
36839;SDS011;24406;51.640;9.566;2023-04-24T14:16:45;3.10;;;2.50;;
36839;SDS011;24406;51.640;9.566;2023-04-24T14:21:48;3.10;;;2.40;;
36839;SDS011;24406;51.640;9.566;2023-04-24T14:26:50;3.30;;;2.90;;
36839;SDS011;24406;51.640;9.566;2023-04-24T14:31:51;3.08;;;2.38;;
36839;SDS011;24406;51.640;9.566;2023-04-24T14:36:54;3.40;;;3.10;;
36839;SDS011;24406;51.640;9.566;2023-04-24T14:41:56;3.88;;;3.45;;
36839;SDS011;24406;51.640;9.566;2023-04-24T14:46:58;6.93;;;5.47;;
36839;SDS011;24406;51.640;9.566;2023-04-24T14:52:02;6.43;;;5.80;;
36839;SDS011;24406;51.640;9.566;2023-04-24T14:57:05;8.57;;;5.60;;
36839;SDS011;24406;51.640;9.566;2023-04-24T15:02:13;8.32;;;6.88;;
36839;SDS011;24406;51.640;9.566;2023-04-24T15:07:19;9.50;;;6.40;;
36839;SDS011;24406;51.640;9.566;2023-04-24T15:12:21;8.35;;;7.13;;
36839;SDS011;24406;51.640;9.566;2023-04-24T15:17:22;7.82;;;7.13;;
36839;SDS011;24406;51.640;9.566;2023-04-24T15:22:25;9.52;;;6.72;;
36839;SDS011;24406;51.640;9.566;2023-04-24T15:27:27;9.93;;;6.93;;
36839;SDS011;24406;51.640;9.566;2023-04-24T15:32:28;8.07;;;7.25;;
36839;SDS011;24406;51.640;9.566;2023-04-24T15:37:35;7.45;;;6.75;;
36839;SDS011;24406;51.640;9.566;2023-04-24T15:42:36;13.55;;;7.13;;
36839;SDS011;24406;51.640;9.566;2023-04-24T15:47:38;7.18;;;5.82;;
36839;SDS011;24406;51.640;9.566;2023-04-24T15:52:41;9.45;;;5.65;;
36839;SDS011;24406;51.640;9.566;2023-04-24T15:57:42;6.93;;;5.30;;
36839;SDS011;24406;51.640;9.566;2023-04-24T16:02:44;5.10;;;4.22;;
36839;SDS011;24406;51.640;9.566;2023-04-24T16:07:47;7.45;;;5.28;;
36839;SDS011;24406;51.640;9.566;2023-04-24T16:12:48;5.75;;;4.45;;
36839;SDS011;24406;51.640;9.566;2023-04-24T16:17:50;7.88;;;4.50;;
36839;SDS011;24406;51.640;9.566;2023-04-24T16:22:53;7.70;;;5.40;;
36839;SDS011;24406;51.640;9.566;2023-04-24T16:27:55;8.38;;;5.63;;
36839;SDS011;24406;51.640;9.566;2023-04-24T16:32:56;5.50;;;5.00;;
36839;SDS011;24406;51.640;9.566;2023-04-24T16:37:59;6.00;;;4.95;;
36839;SDS011;24406;51.640;9.566;2023-04-24T16:43:02;8.15;;;5.18;;
36839;SDS011;24406;51.640;9.566;2023-04-24T16:48:04;4.38;;;3.97;;
36839;SDS011;24406;51.640;9.566;2023-04-24T16:53:08;5.30;;;4.80;;
36839;SDS011;24406;51.640;9.566;2023-04-24T16:58:09;7.82;;;5.43;;
36839;SDS011;24406;51.640;9.566;2023-04-24T17:03:11;6.13;;;4.82;;
36839;SDS011;24406;51.640;9.566;2023-04-24T17:08:14;8.70;;;5.38;;
36839;SDS011;24406;51.640;9.566;2023-04-24T17:13:15;8.95;;;7.63;;
36839;SDS011;24406;51.640;9.566;2023-04-24T17:18:16;7.00;;;5.75;;
36839;SDS011;24406;51.640;9.566;2023-04-24T17:23:20;6.45;;;5.22;;
36839;SDS011;24406;51.640;9.566;2023-04-24T17:28:22;10.60;;;7.82;;
36839;SDS011;24406;51.640;9.566;2023-04-24T17:33:26;12.52;;;9.25;;
36839;SDS011;24406;51.640;9.566;2023-04-24T17:38:29;6.18;;;5.57;;
36839;SDS011;24406;51.640;9.566;2023-04-24T17:43:31;4.90;;;4.50;;
36839;SDS011;24406;51.640;9.566;2023-04-24T17:48:32;6.25;;;5.57;;
36839;SDS011;24406;51.640;9.566;2023-04-24T17:53:40;6.13;;;5.43;;
36839;SDS011;24406;51.640;9.566;2023-04-24T17:58:44;5.28;;;4.78;;
36839;SDS011;24406;51.640;9.566;2023-04-24T18:03:46;7.10;;;4.72;;
36839;SDS011;24406;51.640;9.566;2023-04-24T18:08:49;4.93;;;3.88;;
36839;SDS011;24406;51.640;9.566;2023-04-24T18:13:50;4.95;;;4.15;;
36839;SDS011;24406;51.640;9.566;2023-04-24T18:18:52;6.35;;;4.85;;
36839;SDS011;24406;51.640;9.566;2023-04-24T18:23:55;4.93;;;4.53;;
36839;SDS011;24406;51.640;9.566;2023-04-24T18:28:59;8.90;;;5.47;;
36839;SDS011;24406;51.640;9.566;2023-04-24T18:34:00;5.80;;;4.88;;
36839;SDS011;24406;51.640;9.566;2023-04-24T18:39:03;7.05;;;4.80;;
36839;SDS011;24406;51.640;9.566;2023-04-24T18:44:05;5.63;;;5.10;;
36839;SDS011;24406;51.640;9.566;2023-04-24T18:49:06;10.20;;;5.70;;
36839;SDS011;24406;51.640;9.566;2023-04-24T18:54:09;7.75;;;5.32;;
36839;SDS011;24406;51.640;9.566;2023-04-24T18:59:11;6.10;;;5.60;;
36839;SDS011;24406;51.640;9.566;2023-04-24T19:04:13;5.25;;;4.80;;
36839;SDS011;24406;51.640;9.566;2023-04-24T19:09:16;7.20;;;5.82;;
36839;SDS011;24406;51.640;9.566;2023-04-24T19:14:17;6.38;;;5.60;;
36839;SDS011;24406;51.640;9.566;2023-04-24T19:19:21;5.53;;;5.00;;
36839;SDS011;24406;51.640;9.566;2023-04-24T19:24:26;6.10;;;5.50;;
36839;SDS011;24406;51.640;9.566;2023-04-24T19:29:29;6.65;;;6.10;;
36839;SDS011;24406;51.640;9.566;2023-04-24T19:34:31;7.80;;;7.10;;
36839;SDS011;24406;51.640;9.566;2023-04-24T19:39:35;6.47;;;5.97;;
36839;SDS011;24406;51.640;9.566;2023-04-24T19:44:36;5.97;;;5.35;;
36839;SDS011;24406;51.640;9.566;2023-04-24T19:49:38;8.00;;;6.63;;
36839;SDS011;24406;51.640;9.566;2023-04-24T19:54:41;7.82;;;6.75;;
36839;SDS011;24406;51.640;9.566;2023-04-24T19:59:42;8.93;;;6.15;;
36839;SDS011;24406;51.640;9.566;2023-04-24T20:04:43;9.05;;;6.70;;
36839;SDS011;24406;51.640;9.566;2023-04-24T20:09:46;7.68;;;6.90;;
36839;SDS011;24406;51.640;9.566;2023-04-24T20:14:48;8.60;;;7.75;;
36839;SDS011;24406;51.640;9.566;2023-04-24T20:19:50;11.43;;;10.13;;
36839;SDS011;24406;51.640;9.566;2023-04-24T20:24:53;10.13;;;9.07;;
36839;SDS011;24406;51.640;9.566;2023-04-24T20:29:55;8.73;;;7.68;;
36839;SDS011;24406;51.640;9.566;2023-04-24T20:34:57;9.20;;;7.00;;
36839;SDS011;24406;51.640;9.566;2023-04-24T20:40:00;10.60;;;7.40;;
36839;SDS011;24406;51.640;9.566;2023-04-24T20:45:05;7.85;;;7.15;;
36839;SDS011;24406;51.640;9.566;2023-04-24T20:50:07;9.07;;;7.25;;
36839;SDS011;24406;51.640;9.566;2023-04-24T20:55:11;6.85;;;6.22;;
36839;SDS011;24406;51.640;9.566;2023-04-24T21:00:13;7.28;;;6.10;;
36839;SDS011;24406;51.640;9.566;2023-04-24T21:05:15;7.13;;;6.15;;
36839;SDS011;24406;51.640;9.566;2023-04-24T21:10:18;7.45;;;6.03;;
36839;SDS011;24406;51.640;9.566;2023-04-24T21:15:20;8.57;;;6.25;;
36839;SDS011;24406;51.640;9.566;2023-04-24T21:20:21;8.82;;;5.32;;
36839;SDS011;24406;51.640;9.566;2023-04-24T21:25:24;5.00;;;4.50;;
36839;SDS011;24406;51.640;9.566;2023-04-24T21:30:26;9.02;;;4.60;;
36839;SDS011;24406;51.640;9.566;2023-04-24T21:35:27;9.63;;;5.30;;
36839;SDS011;24406;51.640;9.566;2023-04-24T21:40:30;9.90;;;5.40;;
36839;SDS011;24406;51.640;9.566;2023-04-24T21:45:31;10.55;;;5.00;;
36839;SDS011;24406;51.640;9.566;2023-04-24T21:50:33;7.35;;;5.32;;
36839;SDS011;24406;51.640;9.566;2023-04-24T21:55:36;7.40;;;5.28;;
36839;SDS011;24406;51.640;9.566;2023-04-24T22:00:37;11.73;;;4.75;;
36839;SDS011;24406;51.640;9.566;2023-04-24T22:05:39;9.48;;;5.90;;
36839;SDS011;24406;51.640;9.566;2023-04-24T22:10:42;9.50;;;4.65;;
36839;SDS011;24406;51.640;9.566;2023-04-24T22:15:44;7.05;;;3.90;;
36839;SDS011;24406;51.640;9.566;2023-04-24T22:20:45;9.50;;;5.68;;
36839;SDS011;24406;51.640;9.566;2023-04-24T22:25:49;15.05;;;4.88;;
36839;SDS011;24406;51.640;9.566;2023-04-24T22:30:50;9.07;;;4.75;;
36839;SDS011;24406;51.640;9.566;2023-04-24T22:35:51;10.13;;;4.85;;
36839;SDS011;24406;51.640;9.566;2023-04-24T22:40:55;7.88;;;4.40;;
36839;SDS011;24406;51.640;9.566;2023-04-24T22:45:56;16.33;;;4.97;;
36839;SDS011;24406;51.640;9.566;2023-04-24T22:50:58;9.80;;;5.65;;
36839;SDS011;24406;51.640;9.566;2023-04-24T22:56:01;9.98;;;5.63;;
36839;SDS011;24406;51.640;9.566;2023-04-24T23:01:02;10.35;;;5.15;;
36839;SDS011;24406;51.640;9.566;2023-04-24T23:06:04;13.43;;;5.28;;
36839;SDS011;24406;51.640;9.566;2023-04-24T23:11:07;12.15;;;5.88;;
36839;SDS011;24406;51.640;9.566;2023-04-24T23:16:10;15.57;;;6.07;;
36839;SDS011;24406;51.640;9.566;2023-04-24T23:21:11;9.27;;;5.95;;
36839;SDS011;24406;51.640;9.566;2023-04-24T23:26:14;12.75;;;6.40;;
36839;SDS011;24406;51.640;9.566;2023-04-24T23:31:16;14.45;;;6.50;;
36839;SDS011;24406;51.640;9.566;2023-04-24T23:36:17;15.05;;;7.03;;
36839;SDS011;24406;51.640;9.566;2023-04-24T23:41:20;10.30;;;5.95;;
36839;SDS011;24406;51.640;9.566;2023-04-24T23:46:22;12.25;;;6.60;;
36839;SDS011;24406;51.640;9.566;2023-04-24T23:51:24;12.98;;;6.25;;
36839;SDS011;24406;51.640;9.566;2023-04-24T23:56:27;10.93;;;6.13;;
